AVA9398 SKRG-SKCG
Flight info
| Callsign | AVA9398 |
|---|---|
| Flight time | 0h 43m |
| Altitude | 28000 |
| Route | LLIXI2A LATIS W65 BUTAL W6 CTG |
| Aircraft | A320/M-SDE3FGHIRWY/LB1 |
Departure
| Time | 2026-05-05 14:50 |
|---|---|
| Airport | Jose Maria Córdova International Airport (SKRG) |
Arrival
| Time | 2026-05-05 15:33 |
|---|---|
| Airport | Rafael Nuñez International Airport (SKCG) |
| Time | Latitude | Longitude | Altitude | Speed | Heading |
|---|---|---|---|---|---|
| 2026-05-05 14:25 | 6.16974 | -75.42800 | 7019 ft | 0 kts | 340° |
| 2026-05-05 14:39 | 6.16960 | -75.42795 | 7020 ft | 2 kts | 340° |
| 2026-05-05 14:39 | 6.16945 | -75.42790 | 7018 ft | 2 kts | 342° |
| 2026-05-05 14:39 | 6.16929 | -75.42787 | 7020 ft | 2 kts | 27° |
| 2026-05-05 14:39 | 6.16918 | -75.42798 | 7019 ft | 2 kts | 73° |
| 2026-05-05 14:40 | 6.16918 | -75.42799 | 7021 ft | 0 kts | 73° |
| 2026-05-05 14:42 | 6.16918 | -75.42798 | 7019 ft | 1 kts | 73° |
| 2026-05-05 14:42 | 6.16925 | -75.42779 | 7021 ft | 2 kts | 70° |
| 2026-05-05 14:43 | 6.16929 | -75.42768 | 7019 ft | 1 kts | 68° |
| 2026-05-05 14:43 | 6.16930 | -75.42765 | 7019 ft | 3 kts | 67° |
| 2026-05-05 14:43 | 6.16966 | -75.42713 | 7018 ft | 12 kts | 50° |
| 2026-05-05 14:43 | 6.17029 | -75.42657 | 7018 ft | 11 kts | 41° |
| 2026-05-05 14:44 | 6.17044 | -75.42596 | 7017 ft | 5 kts | 114° |
| 2026-05-05 14:44 | 6.17023 | -75.42578 | 7019 ft | 7 kts | 146° |
| 2026-05-05 14:44 | 6.16972 | -75.42547 | 7017 ft | 10 kts | 149° |
| 2026-05-05 14:44 | 6.16910 | -75.42510 | 7016 ft | 12 kts | 149° |
| 2026-05-05 14:45 | 6.16823 | -75.42482 | 7019 ft | 15 kts | 181° |
| 2026-05-05 14:45 | 6.16705 | -75.42485 | 7011 ft | 19 kts | 179° |
| 2026-05-05 14:45 | 6.16553 | -75.42483 | 7001 ft | 24 kts | 179° |
| 2026-05-05 14:45 | 6.16382 | -75.42482 | 6988 ft | 26 kts | 179° |
| 2026-05-05 14:46 | 6.16225 | -75.42481 | 6988 ft | 21 kts | 180° |
| 2026-05-05 14:46 | 6.16073 | -75.42480 | 6984 ft | 23 kts | 179° |
| 2026-05-05 14:46 | 6.15905 | -75.42478 | 6982 ft | 25 kts | 180° |
| 2026-05-05 14:46 | 6.15721 | -75.42477 | 6980 ft | 27 kts | 179° |
| 2026-05-05 14:47 | 6.15530 | -75.42475 | 6979 ft | 28 kts | 180° |
| 2026-05-05 14:47 | 6.15356 | -75.42475 | 6977 ft | 25 kts | 180° |
| 2026-05-05 14:47 | 6.15182 | -75.42475 | 6978 ft | 26 kts | 179° |
| 2026-05-05 14:47 | 6.15012 | -75.42474 | 6977 ft | 21 kts | 180° |
| 2026-05-05 14:48 | 6.14928 | -75.42473 | 6977 ft | 9 kts | 173° |
| 2026-05-05 14:48 | 6.14898 | -75.42434 | 6977 ft | 7 kts | 92° |
| 2026-05-05 14:48 | 6.14898 | -75.42388 | 6977 ft | 6 kts | 89° |
| 2026-05-05 14:48 | 6.14912 | -75.42345 | 6975 ft | 10 kts | 50° |
| 2026-05-05 14:49 | 6.15006 | -75.42304 | 6978 ft | 16 kts | 0° |
| 2026-05-05 14:49 | 6.15029 | -75.42304 | 6978 ft | 0 kts | 359° |
| 2026-05-05 14:49 | 6.15121 | -75.42305 | 6979 ft | 46 kts | 359° |
| 2026-05-05 14:49 | 6.15689 | -75.42308 | 6980 ft | 115 kts | 360° |
| 2026-05-05 14:50 | 6.16681 | -75.42313 | 7001 ft | 167 kts | 0° |
| 2026-05-05 14:50 | 6.17934 | -75.42324 | 7343 ft | 190 kts | 360° |
| 2026-05-05 14:50 | 6.19291 | -75.42352 | 8077 ft | 198 kts | 0° |
| 2026-05-05 14:50 | 6.20691 | -75.42407 | 8585 ft | 208 kts | 0° |
| 2026-05-05 14:51 | 6.22219 | -75.42422 | 8812 ft | 232 kts | 1° |
| 2026-05-05 14:51 | 6.23920 | -75.42412 | 9126 ft | 257 kts | 2° |
| 2026-05-05 14:51 | 6.25785 | -75.42400 | 9576 ft | 275 kts | 2° |
| 2026-05-05 14:51 | 6.27678 | -75.42397 | 10555 ft | 270 kts | 2° |
| 2026-05-05 14:52 | 6.29540 | -75.42400 | 11366 ft | 272 kts | 2° |
| 2026-05-05 14:52 | 6.31467 | -75.42407 | 12122 ft | 275 kts | 2° |
| 2026-05-05 14:52 | 6.33365 | -75.42417 | 12839 ft | 279 kts | 2° |
| 2026-05-05 14:52 | 6.35316 | -75.42414 | 13601 ft | 282 kts | 3° |
| 2026-05-05 14:53 | 6.37287 | -75.42395 | 14303 ft | 285 kts | 4° |
| 2026-05-05 14:53 | 6.39280 | -75.42369 | 14935 ft | 288 kts | 4° |
| 2026-05-05 14:53 | 6.41356 | -75.42338 | 15185 ft | 310 kts | 4° |
| 2026-05-05 14:53 | 6.43589 | -75.42307 | 15357 ft | 333 kts | 3° |
| 2026-05-05 14:54 | 6.45998 | -75.42321 | 15439 ft | 357 kts | 1° |
| 2026-05-05 14:54 | 6.48541 | -75.42379 | 15726 ft | 372 kts | 1° |
| 2026-05-05 14:54 | 6.51148 | -75.42459 | 16294 ft | 377 kts | 0° |
| 2026-05-05 14:54 | 6.53783 | -75.42544 | 16942 ft | 381 kts | 1° |
| 2026-05-05 14:55 | 6.56408 | -75.42626 | 17573 ft | 383 kts | 1° |
| 2026-05-05 14:55 | 6.59079 | -75.42702 | 18197 ft | 386 kts | 1° |
| 2026-05-05 14:55 | 6.61776 | -75.42773 | 18773 ft | 389 kts | 1° |
| 2026-05-05 14:55 | 6.64489 | -75.42840 | 19301 ft | 392 kts | 1° |
| 2026-05-05 14:56 | 6.67223 | -75.42905 | 19841 ft | 394 kts | 1° |
| 2026-05-05 14:56 | 6.69976 | -75.42967 | 20386 ft | 397 kts | 1° |
| 2026-05-05 14:56 | 6.72739 | -75.43027 | 20934 ft | 400 kts | 1° |
| 2026-05-05 14:56 | 6.75538 | -75.43090 | 21483 ft | 403 kts | 0° |
| 2026-05-05 14:57 | 6.78349 | -75.43157 | 22030 ft | 406 kts | 0° |
| 2026-05-05 14:57 | 6.81180 | -75.43226 | 22579 ft | 408 kts | 0° |
| 2026-05-05 14:57 | 6.83992 | -75.43294 | 23098 ft | 411 kts | 0° |
| 2026-05-05 14:57 | 6.86860 | -75.43366 | 23612 ft | 414 kts | 0° |
| 2026-05-05 14:58 | 6.89752 | -75.43438 | 24044 ft | 417 kts | 0° |
| 2026-05-05 14:58 | 6.92661 | -75.43509 | 24434 ft | 419 kts | 0° |
| 2026-05-05 14:58 | 6.95583 | -75.43575 | 24848 ft | 422 kts | 0° |
| 2026-05-05 14:58 | 6.98529 | -75.43642 | 25243 ft | 424 kts | 360° |
| 2026-05-05 14:59 | 7.01490 | -75.43711 | 25630 ft | 427 kts | 360° |
| 2026-05-05 14:59 | 7.04472 | -75.43783 | 26014 ft | 430 kts | 360° |
| 2026-05-05 14:59 | 7.07428 | -75.43854 | 26375 ft | 432 kts | 360° |
| 2026-05-05 14:59 | 7.10444 | -75.43926 | 26734 ft | 435 kts | 360° |
| 2026-05-05 15:00 | 7.13475 | -75.43997 | 27070 ft | 437 kts | 360° |
| 2026-05-05 15:00 | 7.15539 | -75.44046 | 27294 ft | 439 kts | 359° |
| 2026-05-05 15:00 | 7.19595 | -75.44147 | 27744 ft | 442 kts | 359° |
| 2026-05-05 15:00 | 7.22682 | -75.44225 | 28058 ft | 445 kts | 359° |
| 2026-05-05 15:01 | 7.25787 | -75.44300 | 28379 ft | 447 kts | 359° |
| 2026-05-05 15:01 | 7.28906 | -75.44373 | 28690 ft | 450 kts | 359° |
| 2026-05-05 15:01 | 7.32046 | -75.44444 | 29003 ft | 453 kts | 359° |
| 2026-05-05 15:01 | 7.35205 | -75.44516 | 29294 ft | 455 kts | 359° |
| 2026-05-05 15:02 | 7.38336 | -75.44591 | 29591 ft | 457 kts | 359° |
| 2026-05-05 15:02 | 7.41526 | -75.44669 | 29881 ft | 460 kts | 359° |
| 2026-05-05 15:02 | 7.44727 | -75.44750 | 30025 ft | 459 kts | 359° |
| 2026-05-05 15:02 | 7.47867 | -75.44829 | 30033 ft | 446 kts | 359° |
| 2026-05-05 15:03 | 7.54004 | -75.44975 | 30033 ft | 438 kts | 359° |
| 2026-05-05 15:03 | 7.60087 | -75.45121 | 30021 ft | 437 kts | 359° |
| 2026-05-05 15:04 | 7.66120 | -75.45265 | 30004 ft | 436 kts | 359° |
| 2026-05-05 15:04 | 7.72185 | -75.45407 | 29991 ft | 436 kts | 359° |
| 2026-05-05 15:05 | 7.81282 | -75.45619 | 29978 ft | 436 kts | 359° |
| 2026-05-05 15:06 | 7.87347 | -75.45765 | 29963 ft | 436 kts | 359° |
| 2026-05-05 15:06 | 7.93363 | -75.45897 | 29951 ft | 435 kts | 359° |
| 2026-05-05 15:07 | 7.99420 | -75.46020 | 29949 ft | 435 kts | 359° |
| 2026-05-05 15:07 | 8.05476 | -75.46139 | 29941 ft | 435 kts | 359° |
| 2026-05-05 15:08 | 8.11530 | -75.46268 | 29944 ft | 435 kts | 358° |
| 2026-05-05 15:08 | 8.17546 | -75.46393 | 29940 ft | 435 kts | 358° |
| 2026-05-05 15:09 | 8.23601 | -75.46515 | 29938 ft | 435 kts | 358° |
| 2026-05-05 15:09 | 8.29651 | -75.46644 | 29944 ft | 435 kts | 358° |
| 2026-05-05 15:10 | 8.35708 | -75.46766 | 29943 ft | 435 kts | 359° |
| 2026-05-05 15:10 | 8.41714 | -75.46884 | 29939 ft | 435 kts | 359° |
| 2026-05-05 15:11 | 8.47771 | -75.47010 | 29939 ft | 435 kts | 358° |
| 2026-05-05 15:11 | 8.53817 | -75.47138 | 29945 ft | 435 kts | 358° |
| 2026-05-05 15:12 | 8.59863 | -75.47272 | 29943 ft | 435 kts | 358° |
| 2026-05-05 15:12 | 8.65868 | -75.47401 | 29938 ft | 435 kts | 359° |
| 2026-05-05 15:13 | 8.69909 | -75.47486 | 29938 ft | 434 kts | 359° |
| 2026-05-05 15:13 | 8.71746 | -75.47530 | 29939 ft | 434 kts | 358° |
| 2026-05-05 15:14 | 8.77794 | -75.47655 | 29942 ft | 434 kts | 359° |
| 2026-05-05 15:14 | 8.80818 | -75.47715 | 29786 ft | 435 kts | 359° |
| 2026-05-05 15:14 | 8.83841 | -75.47774 | 29523 ft | 435 kts | 359° |
| 2026-05-05 15:14 | 8.86865 | -75.47834 | 29259 ft | 435 kts | 359° |
| 2026-05-05 15:15 | 8.89855 | -75.47893 | 29002 ft | 435 kts | 359° |
| 2026-05-05 15:15 | 8.92882 | -75.47955 | 28745 ft | 435 kts | 359° |
| 2026-05-05 15:15 | 8.95886 | -75.48016 | 28224 ft | 430 kts | 359° |
| 2026-05-05 15:15 | 8.98867 | -75.48077 | 27610 ft | 427 kts | 359° |
| 2026-05-05 15:16 | 9.01588 | -75.48135 | 27056 ft | 424 kts | 359° |
| 2026-05-05 15:16 | 9.03485 | -75.48176 | 26668 ft | 422 kts | 359° |
| 2026-05-05 15:16 | 9.07388 | -75.48258 | 25883 ft | 417 kts | 359° |
| 2026-05-05 15:16 | 9.09310 | -75.48299 | 25501 ft | 416 kts | 359° |
| 2026-05-05 15:17 | 9.12191 | -75.48359 | 24942 ft | 412 kts | 359° |
| 2026-05-05 15:17 | 9.15052 | -75.48419 | 24395 ft | 410 kts | 359° |
| 2026-05-05 15:17 | 9.18806 | -75.48499 | 23700 ft | 406 kts | 360° |
| 2026-05-05 15:17 | 9.21615 | -75.48558 | 23128 ft | 403 kts | 360° |
| 2026-05-05 15:18 | 9.24401 | -75.48617 | 22624 ft | 398 kts | 0° |
| 2026-05-05 15:18 | 9.26270 | -75.48656 | 22290 ft | 396 kts | 0° |
| 2026-05-05 15:18 | 9.28975 | -75.48712 | 21803 ft | 392 kts | 0° |
| 2026-05-05 15:18 | 9.31688 | -75.48768 | 21311 ft | 389 kts | 0° |
| 2026-05-05 15:19 | 9.34385 | -75.48824 | 20795 ft | 386 kts | 0° |
| 2026-05-05 15:19 | 9.37066 | -75.48879 | 20299 ft | 384 kts | 1° |
| 2026-05-05 15:19 | 9.39735 | -75.48933 | 19771 ft | 383 kts | 1° |
| 2026-05-05 15:19 | 9.42396 | -75.48989 | 19247 ft | 383 kts | 1° |
| 2026-05-05 15:20 | 9.45057 | -75.49045 | 18715 ft | 382 kts | 1° |
| 2026-05-05 15:20 | 9.47681 | -75.49101 | 18181 ft | 382 kts | 1° |
| 2026-05-05 15:20 | 9.50334 | -75.49157 | 17660 ft | 380 kts | 1° |
| 2026-05-05 15:20 | 9.52965 | -75.49237 | 17168 ft | 377 kts | 0° |
| 2026-05-05 15:21 | 9.55586 | -75.49336 | 16656 ft | 376 kts | 0° |
| 2026-05-05 15:21 | 9.58193 | -75.49444 | 16136 ft | 374 kts | 0° |
| 2026-05-05 15:21 | 9.60789 | -75.49550 | 15627 ft | 373 kts | 0° |
| 2026-05-05 15:21 | 9.63380 | -75.49655 | 15113 ft | 372 kts | 0° |
| 2026-05-05 15:22 | 9.65964 | -75.49758 | 14609 ft | 371 kts | 0° |
| 2026-05-05 15:22 | 9.68543 | -75.49857 | 14098 ft | 371 kts | 1° |
| 2026-05-05 15:22 | 9.71082 | -75.49951 | 13569 ft | 370 kts | 1° |
| 2026-05-05 15:22 | 9.73653 | -75.50043 | 13024 ft | 369 kts | 1° |
| 2026-05-05 15:23 | 9.76213 | -75.50133 | 12499 ft | 366 kts | 1° |
| 2026-05-05 15:23 | 9.78752 | -75.50225 | 11968 ft | 364 kts | 0° |
| 2026-05-05 15:23 | 9.81274 | -75.50319 | 11438 ft | 362 kts | 0° |
| 2026-05-05 15:23 | 9.83789 | -75.50415 | 10902 ft | 362 kts | 0° |
| 2026-05-05 15:24 | 9.86295 | -75.50509 | 10396 ft | 359 kts | 0° |
| 2026-05-05 15:24 | 9.88743 | -75.50601 | 10254 ft | 345 kts | 0° |
| 2026-05-05 15:24 | 9.91053 | -75.50693 | 10137 ft | 325 kts | 0° |
| 2026-05-05 15:24 | 9.93243 | -75.50781 | 9824 ft | 308 kts | 0° |
| 2026-05-05 15:25 | 9.95325 | -75.50861 | 9468 ft | 294 kts | 0° |
| 2026-05-05 15:25 | 9.97345 | -75.50933 | 8952 ft | 287 kts | 0° |
| 2026-05-05 15:25 | 9.99321 | -75.51000 | 8424 ft | 282 kts | 0° |
| 2026-05-05 15:25 | 10.01266 | -75.51070 | 7914 ft | 278 kts | 0° |
| 2026-05-05 15:26 | 10.03174 | -75.51139 | 7401 ft | 272 kts | 1° |
| 2026-05-05 15:26 | 10.05045 | -75.51208 | 6904 ft | 266 kts | 0° |
| 2026-05-05 15:26 | 10.06880 | -75.51277 | 6419 ft | 264 kts | 0° |
| 2026-05-05 15:26 | 10.08700 | -75.51344 | 5907 ft | 259 kts | 0° |
| 2026-05-05 15:27 | 10.10461 | -75.51409 | 5429 ft | 254 kts | 0° |
| 2026-05-05 15:27 | 10.12178 | -75.51472 | 4984 ft | 252 kts | 0° |
| 2026-05-05 15:27 | 10.13915 | -75.51537 | 4506 ft | 249 kts | 0° |
| 2026-05-05 15:27 | 10.15643 | -75.51602 | 4029 ft | 247 kts | 0° |
| 2026-05-05 15:28 | 10.17330 | -75.51667 | 3844 ft | 237 kts | 0° |
| 2026-05-05 15:28 | 10.18936 | -75.51730 | 3788 ft | 224 kts | 359° |
| 2026-05-05 15:28 | 10.20459 | -75.51789 | 3736 ft | 214 kts | 0° |
| 2026-05-05 15:28 | 10.21909 | -75.51845 | 3667 ft | 205 kts | 359° |
| 2026-05-05 15:29 | 10.23311 | -75.51936 | 3569 ft | 199 kts | 356° |
| 2026-05-05 15:29 | 10.24678 | -75.52032 | 3401 ft | 192 kts | 1° |
| 2026-05-05 15:29 | 10.25996 | -75.52023 | 3194 ft | 188 kts | 4° |
| 2026-05-05 15:29 | 10.27277 | -75.51982 | 2963 ft | 186 kts | 4° |
| 2026-05-05 15:30 | 10.28581 | -75.51931 | 2726 ft | 188 kts | 4° |
| 2026-05-05 15:30 | 10.29872 | -75.51879 | 2484 ft | 185 kts | 3° |
| 2026-05-05 15:30 | 10.31157 | -75.51827 | 2253 ft | 184 kts | 4° |
| 2026-05-05 15:30 | 10.32433 | -75.51774 | 2011 ft | 183 kts | 4° |
| 2026-05-05 15:31 | 10.33699 | -75.51723 | 1783 ft | 181 kts | 4° |
| 2026-05-05 15:31 | 10.34954 | -75.51671 | 1552 ft | 180 kts | 3° |
| 2026-05-05 15:31 | 10.36200 | -75.51620 | 1324 ft | 179 kts | 4° |
| 2026-05-05 15:31 | 10.37431 | -75.51570 | 1090 ft | 174 kts | 4° |
| 2026-05-05 15:32 | 10.38584 | -75.51523 | 893 ft | 158 kts | 2° |
| 2026-05-05 15:32 | 10.39630 | -75.51480 | 707 ft | 149 kts | 4° |
| 2026-05-05 15:32 | 10.40654 | -75.51438 | 521 ft | 146 kts | 3° |
| 2026-05-05 15:32 | 10.41662 | -75.51397 | 332 ft | 145 kts | 3° |
| 2026-05-05 15:33 | 10.42666 | -75.51355 | 147 ft | 144 kts | 3° |
| 2026-05-05 15:33 | 10.43647 | -75.51319 | 21 ft | 132 kts | 2° |
| 2026-05-05 15:33 | 10.44351 | -75.51285 | 16 ft | 43 kts | 2° |
| 2026-05-05 15:33 | 10.44541 | -75.51302 | 18 ft | 9 kts | 305° |
| 2026-05-05 15:34 | 10.44550 | -75.51340 | 16 ft | 9 kts | 281° |
| 2026-05-05 15:34 | 10.44558 | -75.51428 | 16 ft | 12 kts | 271° |
| 2026-05-05 15:34 | 10.44543 | -75.51492 | 19 ft | 9 kts | 229° |
| 2026-05-05 15:34 | 10.44530 | -75.51532 | 16 ft | 7 kts | 272° |
| 2026-05-05 15:35 | 10.44531 | -75.51555 | 16 ft | 0 kts | 272° |